Time;durP1;ratioP1;P1;durP2;ratioP2;P2;SDS_P1;SDS_P2;PMS_P1;PMS_P2;Temp;Humidity;BMP_temperature;BMP_pressure;BME280_temperature;BME280_humidity;BME280_pressure;Samples;Min_cycle;Max_cycle;Signal;HPM_P1;HPM_P2
2024/01/17 00:01:13;;;;;;;3.87;2.43;;;11.30;69.70;;;;;;4933267;29;20222;-95
2024/01/17 00:03:41;;;;;;;2.47;2.20;;;11.30;69.80;;;;;;4947222;29;20232;-94
2024/01/17 00:06:06;;;;;;;2.97;2.47;;;11.30;69.80;;;;;;4968510;29;20265;-94
2024/01/17 00:08:32;;;;;;;3.83;2.30;;;11.30;69.80;;;;;;4961967;29;20435;-94
2024/01/17 00:10:58;;;;;;;4.33;2.50;;;11.30;70.00;;;;;;4949917;29;20186;-94
2024/01/17 00:13:29;;;;;;;3.23;2.70;;;11.30;69.90;;;;;;4959878;29;20193;-95
2024/01/17 00:15:55;;;;;;;3.10;2.47;;;11.30;70.00;;;;;;4949140;29;20236;-94
2024/01/17 00:18:21;;;;;;;3.80;2.30;;;11.30;69.50;;;;;;4964498;29;20183;-95
2024/01/17 00:20:46;;;;;;;4.17;2.50;;;11.20;69.20;;;;;;4970069;29;20568;-94
2024/01/17 00:23:14;;;;;;;2.83;2.10;;;11.20;69.90;;;;;;4967282;29;20227;-94
2024/01/17 00:25:39;;;;;;;2.63;2.20;;;11.20;70.00;;;;;;4934396;29;20428;-94
2024/01/17 00:28:05;;;;;;;3.53;2.20;;;11.20;69.80;;;;;;4937690;29;20457;-95
2024/01/17 00:30:31;;;;;;;4.87;2.53;;;11.20;69.30;;;;;;4962994;28;20186;-95
2024/01/17 00:33:04;;;;;;;3.00;2.13;;;11.20;69.00;;;;;;4934835;29;20188;-94
2024/01/17 00:35:30;;;;;;;3.30;2.47;;;11.20;69.00;;;;;;4954097;29;20481;-94
2024/01/17 00:37:56;;;;;;;2.93;2.30;;;11.20;69.50;;;;;;4919658;29;20209;-95
2024/01/17 00:40:21;;;;;;;2.97;2.33;;;11.10;68.90;;;;;;4934772;29;20481;-94
2024/01/17 00:42:53;;;;;;;2.53;2.27;;;11.10;68.80;;;;;;4934304;29;20216;-95
2024/01/17 00:45:18;;;;;;;3.53;2.30;;;11.10;68.90;;;;;;4935689;29;20289;-95
2024/01/17 00:47:45;;;;;;;3.10;2.10;;;11.10;68.20;;;;;;4969347;29;20541;-95
2024/01/17 00:50:10;;;;;;;3.97;2.30;;;11.10;68.70;;;;;;4955595;29;20194;-94
2024/01/17 00:52:37;;;;;;;3.80;2.40;;;11.10;68.80;;;;;;4950261;29;20187;-94
2024/01/17 00:55:09;;;;;;;2.80;2.20;;;11.10;68.00;;;;;;4956665;29;20193;-94
2024/01/17 00:57:35;;;;;;;2.90;2.13;;;11.10;68.10;;;;;;4950383;29;20196;-94
2024/01/17 01:00:01;;;;;;;3.87;2.23;;;11.10;68.10;;;;;;4960047;29;20411;-94
2024/01/17 02:25:22;;;;;;;2.70;1.80;;;10.90;70.10;;;;;;4936913;29;20220;-8
2024/01/17 02:27:48;;;;;;;2.37;2.00;;;10.90;70.20;;;;;;4920092;29;20199;-8
2024/01/17 02:30:14;;;;;;;3.43;1.90;;;10.90;70.10;;;;;;4938033;29;20193;-8
2024/01/17 02:32:43;;;;;;;2.33;2.00;;;10.90;69.90;;;;;;4921826;29;20192;-8
2024/01/17 02:35:09;;;;;;;2.73;1.93;;;10.90;69.80;;;;;;4922104;29;20283;-8
2024/01/17 02:37:34;;;;;;;2.30;1.77;;;10.90;69.80;;;;;;4937783;29;20188;-8
2024/01/17 02:40:00;;;;;;;2.37;1.70;;;10.90;69.40;;;;;;4921001;29;20466;-8
2024/01/17 02:42:27;;;;;;;2.20;1.97;;;10.90;69.50;;;;;;4921665;29;20257;-8
2024/01/17 02:44:52;;;;;;;2.20;2.00;;;10.90;69.30;;;;;;4939993;29;20173;-8
2024/01/17 02:47:18;;;;;;;2.93;2.07;;;10.90;69.20;;;;;;4939153;29;20191;-8
2024/01/17 02:49:44;;;;;;;2.60;2.00;;;10.90;68.90;;;;;;4939250;29;20255;-8
2024/01/17 02:52:11;;;;;;;2.33;1.90;;;10.90;69.10;;;;;;4939324;29;20181;-8
2024/01/17 02:54:37;;;;;;;2.23;1.80;;;10.90;69.10;;;;;;4922879;29;20202;-8
2024/01/17 02:57:03;;;;;;;3.37;2.17;;;10.90;68.60;;;;;;4939044;29;20250;-8
2024/01/17 02:59:28;;;;;;;2.20;1.90;;;10.90;68.60;;;;;;4939853;29;20185;-8
2024/01/17 03:01:54;;;;;;;2.43;2.20;;;10.90;68.30;;;;;;4939952;29;20220;-8
2024/01/17 03:04:20;;;;;;;2.77;1.93;;;10.90;68.50;;;;;;4939451;29;20457;-8
2024/01/17 03:06:49;;;;;;;2.80;2.10;;;10.90;67.90;;;;;;4939450;29;20250;-8
2024/01/17 03:09:15;;;;;;;3.73;2.20;;;10.90;68.20;;;;;;4938727;29;20197;-8
2024/01/17 03:11:40;;;;;;;3.67;2.23;;;10.90;68.10;;;;;;4939561;29;20184;-8
2024/01/17 03:14:06;;;;;;;2.57;1.90;;;10.90;68.00;;;;;;4938084;29;20187;-8
2024/01/17 03:16:32;;;;;;;1.90;1.70;;;10.90;68.10;;;;;;4938874;29;20187;-8
2024/01/17 03:18:57;;;;;;;3.33;2.20;;;10.80;68.00;;;;;;4938013;29;20184;-8
2024/01/17 03:21:24;;;;;;;2.10;1.90;;;10.90;68.20;;;;;;4939214;29;20190;-8
2024/01/17 03:23:49;;;;;;;2.50;1.93;;;10.80;68.30;;;;;;4920862;29;20286;-8
2024/01/17 03:26:15;;;;;;;2.00;1.80;;;10.90;68.50;;;;;;4939321;29;20220;-8
2024/01/17 03:28:43;;;;;;;2.40;1.90;;;10.80;68.30;;;;;;4939576;29;20184;-8
2024/01/17 03:31:09;;;;;;;2.30;1.77;;;10.80;68.20;;;;;;4938365;29;20259;-8
2024/01/17 03:33:34;;;;;;;2.90;1.93;;;10.80;68.10;;;;;;4939788;29;20192;-8
2024/01/17 03:36:00;;;;;;;3.20;1.93;;;10.80;68.10;;;;;;4938859;29;20197;-8
2024/01/17 03:38:26;;;;;;;2.20;1.87;;;10.80;68.40;;;;;;4938018;29;20201;-8
2024/01/17 03:40:55;;;;;;;2.50;1.90;;;10.80;68.40;;;;;;4922715;29;20196;-8
2024/01/17 03:43:21;;;;;;;2.33;1.90;;;10.80;68.40;;;;;;4923095;29;20216;-8
2024/01/17 03:45:46;;;;;;;2.77;1.90;;;10.80;68.30;;;;;;4938699;29;20244;-8
2024/01/17 03:48:12;;;;;;;2.63;2.00;;;10.80;68.40;;;;;;4938202;29;20200;-8
2024/01/17 03:50:39;;;;;;;3.40;2.13;;;10.80;68.50;;;;;;4938806;29;20529;-8
2024/01/17 03:53:04;;;;;;;2.43;1.90;;;10.80;68.50;;;;;;4936916;29;20189;-8
2024/01/17 03:55:30;;;;;;;2.10;1.83;;;10.80;68.40;;;;;;4922565;29;20462;-8
2024/01/17 03:57:56;;;;;;;2.70;1.80;;;10.80;68.60;;;;;;4938789;29;20188;-8
2024/01/17 04:00:22;;;;;;;2.60;1.83;;;10.80;68.50;;;;;;4938088;29;20193;-8
2024/01/17 04:02:47;;;;;;;2.87;1.90;;;10.80;68.40;;;;;;4922983;29;20220;-8
2024/01/17 04:05:17;;;;;;;2.43;1.70;;;10.80;68.60;;;;;;4940791;29;20192;-8
2024/01/17 04:07:42;;;;;;;2.13;1.90;;;10.80;68.80;;;;;;4940405;29;20206;-8
2024/01/17 04:10:08;;;;;;;2.83;2.00;;;10.80;68.60;;;;;;4941003;29;20261;-8
2024/01/17 04:12:35;;;;;;;1.73;1.60;;;10.80;68.60;;;;;;4925598;29;20196;-8
2024/01/17 04:15:01;;;;;;;2.03;1.80;;;10.80;68.50;;;;;;4942589;29;20192;-8
2024/01/17 04:17:27;;;;;;;2.37;1.77;;;10.80;68.50;;;;;;4941161;29;20354;-8
2024/01/17 04:19:52;;;;;;;2.30;1.83;;;10.80;69.00;;;;;;4940633;29;20192;-8
2024/01/17 04:22:18;;;;;;;2.30;2.10;;;10.80;68.40;;;;;;4923843;29;20219;-8
2024/01/17 04:24:45;;;;;;;2.50;1.90;;;10.80;68.40;;;;;;4924575;29;20580;-8
2024/01/17 04:27:11;;;;;;;2.70;2.00;;;10.80;68.30;;;;;;4940695;29;20182;-8
2024/01/17 04:29:36;;;;;;;2.07;1.87;;;10.80;68.20;;;;;;4941230;29;20189;-8
2024/01/17 04:32:02;;;;;;;2.23;1.93;;;10.80;68.30;;;;;;4940313;29;20185;-8
2024/01/17 04:34:28;;;;;;;3.07;2.23;;;10.80;68.00;;;;;;4925068;29;20192;-8
2024/01/17 04:36:55;;;;;;;2.93;1.87;;;10.80;68.30;;;;;;4941036;29;20186;-8
2024/01/17 04:39:21;;;;;;;2.30;1.77;;;10.80;68.30;;;;;;4939419;29;20185;-8
2024/01/17 04:41:47;;;;;;;2.17;1.90;;;10.70;68.00;;;;;;4938710;29;20586;-8
2024/01/17 04:44:12;;;;;;;2.20;1.73;;;10.80;68.10;;;;;;4922297;29;20294;-8
2024/01/17 04:46:41;;;;;;;2.20;1.90;;;10.80;68.30;;;;;;4938773;29;20188;-8
2024/01/17 04:49:07;;;;;;;2.23;1.93;;;10.70;68.00;;;;;;4938742;29;20187;-8
2024/01/17 04:51:33;;;;;;;1.70;1.60;;;10.70;68.00;;;;;;4939696;29;20178;-8
2024/01/17 04:53:58;;;;;;;2.13;1.90;;;10.70;68.20;;;;;;4922917;29;20192;-8
2024/01/17 04:56:25;;;;;;;3.57;2.10;;;10.70;68.20;;;;;;4922108;29;20554;-8
2024/01/17 04:58:51;;;;;;;2.33;2.10;;;10.70;68.10;;;;;;4922127;29;20184;-8
2024/01/17 05:01:17;;;;;;;2.50;1.90;;;10.70;68.20;;;;;;4940097;29;20181;-8
2024/01/17 05:03:43;;;;;;;2.10;1.60;;;10.70;68.40;;;;;;4938937;29;20215;-8
2024/01/17 05:06:09;;;;;;;2.33;1.83;;;10.70;68.40;;;;;;4940042;29;20192;-8
2024/01/17 05:08:34;;;;;;;2.87;1.67;;;10.70;68.60;;;;;;4939737;29;20274;-8
2024/01/17 05:11:00;;;;;;;2.17;1.80;;;10.70;68.60;;;;;;4940008;29;20288;-8
2024/01/17 05:13:26;;;;;;;2.37;1.90;;;10.80;68.60;;;;;;4938763;29;20551;-8
2024/01/17 05:15:52;;;;;;;1.93;1.73;;;10.80;68.70;;;;;;4920705;29;20184;-8
2024/01/17 05:18:17;;;;;;;3.60;1.87;;;10.80;68.50;;;;;;4939073;29;20286;-8
2024/01/17 05:20:43;;;;;;;1.83;1.63;;;10.70;68.30;;;;;;4939952;29;20295;-9
2024/01/17 05:23:09;;;;;;;2.30;1.70;;;10.70;68.30;;;;;;4939352;29;20326;-8
2024/01/17 05:25:35;;;;;;;2.10;1.90;;;10.70;68.40;;;;;;4939247;29;20217;-8
2024/01/17 05:28:01;;;;;;;2.40;2.00;;;10.80;68.50;;;;;;4938699;29;20172;-8
2024/01/17 05:30:26;;;;;;;2.87;1.93;;;10.70;68.50;;;;;;4921227;29;20461;-8
2024/01/17 05:32:53;;;;;;;2.10;1.60;;;10.70;68.30;;;;;;4922076;29;20195;-8
2024/01/17 05:35:21;;;;;;;2.00;1.63;;;10.70;68.60;;;;;;4938494;29;20188;-8
2024/01/17 05:37:46;;;;;;;2.13;1.80;;;10.80;68.50;;;;;;4938372;29;20184;-8
2024/01/17 05:40:13;;;;;;;2.13;1.73;;;10.70;68.60;;;;;;4936669;29;20220;-8
2024/01/17 05:42:39;;;;;;;2.33;1.80;;;10.80;68.90;;;;;;4939176;29;20209;-8
2024/01/17 05:45:07;;;;;;;1.97;1.63;;;10.80;68.80;;;;;;4920797;29;20517;-8
2024/01/17 05:47:37;;;;;;;1.93;1.50;;;10.70;68.70;;;;;;4938743;29;20220;-8
2024/01/17 05:50:03;;;;;;;2.53;1.70;;;10.80;69.10;;;;;;4921538;29;20175;-8
2024/01/17 05:52:30;;;;;;;2.60;1.50;;;10.80;69.30;;;;;;4938733;29;20585;-8
2024/01/17 05:54:56;;;;;;;1.97;1.60;;;10.70;69.30;;;;;;4921369;29;20476;-8
2024/01/17 05:57:22;;;;;;;1.63;1.50;;;10.70;69.40;;;;;;4920451;29;20568;-8
2024/01/17 05:59:48;;;;;;;2.17;1.70;;;10.70;69.50;;;;;;4933573;29;20188;-6
2024/01/17 06:02:14;;;;;;;1.60;1.50;;;10.80;69.60;;;;;;4940646;23;20235;-71
2024/01/17 06:04:40;;;;;;;1.70;1.50;;;10.70;69.50;;;;;;4934472;28;20184;-71
2024/01/17 06:07:05;;;;;;;2.60;1.50;;;10.70;69.50;;;;;;4935417;28;20188;-71
2024/01/17 06:09:31;;;;;;;1.83;1.50;;;10.80;69.60;;;;;;4944379;28;20195;-71
2024/01/17 06:11:57;;;;;;;1.73;1.50;;;10.70;69.50;;;;;;4970660;28;20444;-71
2024/01/17 06:14:23;;;;;;;2.03;1.47;;;10.80;69.50;;;;;;4971371;28;20239;-71
2024/01/17 06:16:49;;;;;;;1.87;1.50;;;10.70;69.50;;;;;;4971094;28;20213;-71
2024/01/17 06:19:16;;;;;;;2.30;1.60;;;10.80;69.60;;;;;;4952519;28;20189;-71
2024/01/17 06:21:42;;;;;;;1.40;1.30;;;10.70;69.80;;;;;;4936510;28;20207;-71
2024/01/17 06:24:08;;;;;;;1.40;1.30;;;10.70;69.80;;;;;;4935465;29;20542;-71
2024/01/17 06:26:34;;;;;;;1.60;1.50;;;10.70;70.20;;;;;;4950963;29;20271;-71
2024/01/17 06:29:01;;;;;;;1.77;1.40;;;10.70;70.40;;;;;;4950185;28;20274;-72
2024/01/17 06:31:26;;;;;;;2.27;1.57;;;10.70;70.40;;;;;;4933786;29;20198;-72
2024/01/17 06:33:52;;;;;;;2.37;1.60;;;10.80;70.60;;;;;;4934592;29;20346;-72
2024/01/17 06:36:18;;;;;;;1.73;1.60;;;10.70;70.40;;;;;;4948061;29;20252;-72
2024/01/17 06:38:44;;;;;;;1.93;1.53;;;10.80;70.70;;;;;;4949927;29;20479;-72
2024/01/17 06:41:10;;;;;;;1.83;1.67;;;10.70;70.50;;;;;;4951840;29;20198;-72
2024/01/17 06:43:36;;;;;;;2.23;1.60;;;10.70;70.60;;;;;;4950421;29;20488;-72
2024/01/17 06:46:03;;;;;;;2.30;1.60;;;10.70;70.60;;;;;;4951212;29;20224;-72
2024/01/17 06:48:29;;;;;;;1.47;1.30;;;10.80;70.70;;;;;;4935243;29;20181;-71
2024/01/17 06:50:55;;;;;;;3.30;1.87;;;10.70;70.70;;;;;;4952212;29;20605;-71
2024/01/17 06:53:22;;;;;;;2.43;1.70;;;10.70;70.90;;;;;;4935123;28;20267;-72
2024/01/17 06:55:49;;;;;;;2.50;1.70;;;10.70;70.90;;;;;;4940015;28;20220;-72
2024/01/17 06:58:16;;;;;;;2.87;1.60;;;10.70;70.90;;;;;;4941202;29;20191;-72
2024/01/17 07:00:43;;;;;;;2.00;1.50;;;10.70;71.00;;;;;;4935056;28;20199;-72
2024/01/17 07:03:09;;;;;;;3.40;1.80;;;10.80;71.30;;;;;;4936404;28;20226;-72
2024/01/17 07:05:35;;;;;;;2.17;1.63;;;10.80;71.30;;;;;;4935115;28;20183;-71
2024/01/17 07:08:01;;;;;;;1.90;1.77;;;10.80;71.50;;;;;;4934044;28;20521;-72
2024/01/17 07:10:27;;;;;;;3.93;1.50;;;10.80;71.80;;;;;;4932999;28;20279;-72
2024/01/17 07:12:53;;;;;;;2.50;1.40;;;10.80;71.90;;;;;;4933112;28;20470;-72
2024/01/17 07:15:19;;;;;;;2.83;1.57;;;10.80;71.90;;;;;;4933367;28;20300;-72
2024/01/17 07:17:45;;;;;;;1.83;1.57;;;10.80;71.90;;;;;;4933188;28;20183;-72
2024/01/17 07:20:12;;;;;;;2.20;1.83;;;10.80;71.90;;;;;;4933273;29;20206;-72
2024/01/17 07:22:41;;;;;;;1.90;1.67;;;10.80;72.00;;;;;;4932450;28;20223;-72
2024/01/17 07:25:09;;;;;;;4.43;2.10;;;10.80;72.00;;;;;;4929747;29;20186;-72
2024/01/17 07:27:36;;;;;;;4.97;1.97;;;10.80;72.00;;;;;;4931885;28;20180;-72
2024/01/17 07:30:02;;;;;;;2.23;1.90;;;10.80;72.00;;;;;;4938166;29;20285;-72
2024/01/17 07:32:28;;;;;;;2.40;1.90;;;10.80;72.10;;;;;;4938152;28;20504;-72
2024/01/17 07:34:54;;;;;;;4.70;2.13;;;10.80;72.10;;;;;;4933272;29;20762;-72
2024/01/17 07:37:20;;;;;;;2.80;2.00;;;10.80;72.00;;;;;;4946829;28;20426;-72
2024/01/17 07:39:45;;;;;;;4.33;2.30;;;10.80;72.10;;;;;;4931854;28;20232;-72
2024/01/17 07:42:11;;;;;;;3.33;2.30;;;10.80;72.50;;;;;;4934599;28;20231;-72
2024/01/17 07:44:37;;;;;;;2.70;2.10;;;10.80;72.30;;;;;;4933743;28;20380;-72
2024/01/17 07:47:03;;;;;;;3.40;1.90;;;10.80;72.30;;;;;;4935946;28;20292;-72
2024/01/17 07:49:29;;;;;;;3.80;2.23;;;10.80;72.30;;;;;;4935501;29;20193;-72
2024/01/17 07:51:55;;;;;;;3.63;1.90;;;10.80;72.20;;;;;;4936877;28;20462;-72
2024/01/17 07:54:23;;;;;;;2.50;2.03;;;10.90;72.30;;;;;;4935348;29;20183;-72
2024/01/17 07:56:49;;;;;;;2.73;1.90;;;10.90;72.30;;;;;;4934532;28;20258;-72
2024/01/17 07:59:15;;;;;;;3.33;2.33;;;10.90;72.30;;;;;;4935816;28;20187;-72
2024/01/17 08:01:41;;;;;;;4.23;2.03;;;10.90;72.30;;;;;;4933552;28;20198;-73
2024/01/17 08:04:07;;;;;;;2.73;1.80;;;10.90;72.30;;;;;;4933674;28;20534;-72
2024/01/17 08:06:33;;;;;;;3.00;2.00;;;10.90;72.20;;;;;;4936152;28;20186;-72
2024/01/17 08:08:59;;;;;;;3.60;2.23;;;10.90;72.30;;;;;;4935724;28;20203;-72
2024/01/17 08:11:25;;;;;;;3.07;2.17;;;10.90;72.20;;;;;;4935041;28;20455;-72
2024/01/17 08:13:51;;;;;;;3.50;2.33;;;10.90;72.20;;;;;;4935539;28;20184;-72
2024/01/17 08:16:16;;;;;;;3.93;2.17;;;10.90;72.10;;;;;;4935086;28;20540;-72
2024/01/17 08:18:42;;;;;;;4.03;2.20;;;10.90;72.10;;;;;;4937703;28;20223;-72
2024/01/17 08:21:08;;;;;;;2.80;2.03;;;10.90;72.00;;;;;;4936968;28;20295;-72
2024/01/17 08:23:34;;;;;;;2.50;1.90;;;10.90;72.00;;;;;;4936050;28;20450;-72
2024/01/17 08:26:00;;;;;;;3.37;2.30;;;10.90;72.00;;;;;;4935545;28;20187;-72
2024/01/17 08:28:26;;;;;;;3.23;2.20;;;10.90;72.00;;;;;;4947961;28;20320;-72
2024/01/17 08:30:52;;;;;;;2.67;2.10;;;10.90;72.00;;;;;;4953166;28;20204;-72
2024/01/17 08:33:18;;;;;;;4.17;2.20;;;10.90;72.00;;;;;;4953824;28;20399;-72
2024/01/17 08:35:44;;;;;;;2.20;2.00;;;11.00;72.10;;;;;;4954814;28;20317;-72
2024/01/17 08:38:10;;;;;;;2.83;2.27;;;11.00;72.10;;;;;;4955522;28;20454;-72
2024/01/17 08:40:36;;;;;;;3.97;2.33;;;11.00;72.40;;;;;;4955981;28;20480;-72
2024/01/17 08:43:03;;;;;;;3.77;2.10;;;11.00;72.80;;;;;;4954088;28;20286;-72
2024/01/17 08:45:28;;;;;;;3.30;2.23;;;11.00;73.00;;;;;;4953003;28;20687;-72
2024/01/17 08:47:54;;;;;;;2.90;2.40;;;11.10;73.20;;;;;;4955087;28;20183;-72
2024/01/17 08:50:20;;;;;;;4.00;2.40;;;11.10;73.30;;;;;;4954388;28;20511;-72
2024/01/17 08:52:46;;;;;;;3.03;2.20;;;11.10;73.10;;;;;;4953642;28;20284;-72
2024/01/17 08:55:12;;;;;;;2.67;2.30;;;11.20;72.80;;;;;;4953074;28;20276;-72
2024/01/17 08:57:38;;;;;;;3.20;2.50;;;11.20;72.40;;;;;;4952790;28;20566;-73
2024/01/17 09:00:08;;;;;;;4.23;2.57;;;11.20;72.10;;;;;;4953390;28;20197;-73
2024/01/17 09:02:34;;;;;;;3.27;2.40;;;11.20;71.70;;;;;;4953849;28;20220;-72
2024/01/17 09:05:00;;;;;;;3.20;2.47;;;11.20;71.30;;;;;;4953175;28;20186;-72
2024/01/17 09:07:26;;;;;;;3.30;2.20;;;11.30;71.00;;;;;;4951097;28;20519;-72
2024/01/17 09:09:52;;;;;;;4.30;2.57;;;11.30;70.60;;;;;;4951038;28;20416;-72
2024/01/17 09:12:18;;;;;;;3.37;2.30;;;11.30;70.10;;;;;;4950764;28;20186;-72
2024/01/17 09:14:44;;;;;;;4.00;2.37;;;11.30;69.80;;;;;;4950373;28;20438;-72
2024/01/17 09:17:10;;;;;;;4.03;2.50;;;11.30;69.70;;;;;;4950007;28;20436;-72
2024/01/17 09:19:36;;;;;;;4.07;2.50;;;11.30;69.50;;;;;;4952403;28;20526;-72
2024/01/17 09:22:02;;;;;;;2.87;2.43;;;11.30;69.40;;;;;;4952508;28;20280;-72
2024/01/17 09:24:28;;;;;;;3.33;2.37;;;11.30;69.30;;;;;;4925984;28;20199;-72
2024/01/17 09:26:54;;;;;;;2.93;2.30;;;11.30;69.30;;;;;;4915035;29;20257;-72
2024/01/17 09:29:20;;;;;;;3.00;2.60;;;11.30;69.20;;;;;;4913356;29;20181;-72
2024/01/17 09:31:46;;;;;;;3.47;2.40;;;11.30;69.20;;;;;;4914019;29;20435;-72
2024/01/17 09:34:11;;;;;;;4.23;2.50;;;11.30;69.10;;;;;;4913096;29;20219;-72
2024/01/17 09:36:37;;;;;;;3.83;2.30;;;11.30;69.10;;;;;;4911556;29;20230;-72
2024/01/17 09:39:04;;;;;;;5.57;2.50;;;11.30;69.10;;;;;;4912771;29;20335;-72
2024/01/17 09:41:31;;;;;;;3.80;2.50;;;11.30;69.10;;;;;;4912044;29;20348;-72
2024/01/17 09:43:56;;;;;;;2.53;2.10;;;11.30;69.10;;;;;;4913066;29;20218;-72
2024/01/17 09:46:23;;;;;;;2.90;2.33;;;11.40;69.20;;;;;;4912784;29;20468;-72
2024/01/17 09:48:49;;;;;;;3.20;2.40;;;11.40;69.30;;;;;;4913018;29;20818;-72
2024/01/17 09:51:17;;;;;;;2.80;2.30;;;11.40;69.40;;;;;;4911357;29;20188;-72
2024/01/17 09:53:48;;;;;;;2.87;2.40;;;11.40;69.40;;;;;;4913160;29;20307;-72
2024/01/17 09:56:16;;;;;;;3.00;2.50;;;11.40;69.30;;;;;;4928873;29;20181;-72
2024/01/17 09:58:45;;;;;;;3.93;2.43;;;11.50;69.20;;;;;;4912191;29;20420;-72
2024/01/17 10:01:14;;;;;;;3.83;2.60;;;11.50;69.20;;;;;;4912500;29;20206;-72
2024/01/17 10:03:41;;;;;;;3.57;2.53;;;11.50;69.20;;;;;;4913538;29;20221;-72
2024/01/17 10:06:08;;;;;;;3.37;2.60;;;11.50;69.20;;;;;;4914920;29;20186;-72
2024/01/17 10:08:35;;;;;;;3.43;2.30;;;11.40;69.10;;;;;;4934221;29;20187;-72
2024/01/17 10:11:01;;;;;;;3.93;2.60;;;11.50;69.10;;;;;;4919390;29;20200;-72
2024/01/17 10:13:27;;;;;;;3.10;2.33;;;11.50;69.10;;;;;;4938965;29;20193;-72
2024/01/17 10:15:52;;;;;;;3.43;2.30;;;11.50;69.10;;;;;;4938792;29;20191;-72
2024/01/17 10:18:19;;;;;;;3.23;2.60;;;11.40;69.00;;;;;;4937253;29;20226;-72
2024/01/17 10:20:46;;;;;;;3.00;2.40;;;11.50;69.10;;;;;;4936388;29;20223;-72
2024/01/17 10:23:13;;;;;;;3.23;2.40;;;11.50;69.00;;;;;;4928393;29;20233;-72
2024/01/17 10:25:42;;;;;;;3.33;2.73;;;11.50;69.00;;;;;;4955396;28;20183;-72
2024/01/17 10:28:09;;;;;;;3.50;2.60;;;11.50;69.00;;;;;;4934587;29;20222;-72
2024/01/17 10:30:36;;;;;;;5.33;2.67;;;11.50;69.00;;;;;;4928427;29;20188;-72
2024/01/17 10:33:03;;;;;;;3.30;2.67;;;11.50;69.00;;;;;;4937224;29;20191;-72
2024/01/17 10:35:29;;;;;;;3.67;2.47;;;11.50;69.00;;;;;;4937463;28;20245;-72
2024/01/17 10:37:56;;;;;;;3.00;2.40;;;11.50;69.00;;;;;;4931462;28;20595;-72
2024/01/17 10:40:22;;;;;;;2.50;2.23;;;11.50;69.00;;;;;;4930841;28;20639;-72
2024/01/17 10:43:04;;;;;;;3.50;2.50;;;11.50;69.10;;;;;;4932067;28;20242;-72
2024/01/17 10:45:35;;;;;;;3.37;2.70;;;11.50;69.10;;;;;;4931328;28;20336;-72
2024/01/17 10:48:01;;;;;;;2.97;2.37;;;11.50;69.20;;;;;;4933458;29;20180;-72
2024/01/17 10:50:27;;;;;;;3.00;2.37;;;11.50;69.10;;;;;;4933593;29;20177;-72
2024/01/17 10:53:10;;;;;;;2.93;2.30;;;11.50;69.10;;;;;;4932259;29;20374;-72
2024/01/17 10:55:38;;;;;;;3.37;2.73;;;11.50;69.10;;;;;;4931503;28;20190;-72
2024/01/17 10:58:11;;;;;;;4.07;2.40;;;11.50;69.20;;;;;;4931998;28;20607;-72
2024/01/17 11:00:40;;;;;;;3.43;2.40;;;11.50;69.20;;;;;;4916489;28;20214;-72
2024/01/17 11:03:09;;;;;;;2.87;2.47;;;11.50;69.20;;;;;;4930745;29;20597;-72
2024/01/17 11:05:48;;;;;;;3.63;2.30;;;11.50;69.20;;;;;;4932460;28;20599;-72
2024/01/17 11:08:15;;;;;;;2.83;2.17;;;11.50;69.20;;;;;;4931936;28;20189;-72
2024/01/17 11:10:43;;;;;;;2.97;2.50;;;11.50;69.20;;;;;;4934034;28;20389;-72
2024/01/17 11:13:12;;;;;;;2.57;2.37;;;11.50;69.20;;;;;;4931820;28;20219;-73
2024/01/17 11:15:39;;;;;;;2.70;2.40;;;11.50;69.20;;;;;;4934136;29;20277;-72
2024/01/17 11:18:07;;;;;;;2.83;2.40;;;11.50;69.20;;;;;;4936455;28;20194;-72
2024/01/17 11:20:35;;;;;;;2.90;2.30;;;11.50;69.30;;;;;;4938134;28;20221;-72
2024/01/17 11:23:03;;;;;;;3.30;2.40;;;11.50;69.20;;;;;;4938039;28;20309;-72
2024/01/17 11:25:33;;;;;;;3.37;2.50;;;11.50;69.20;;;;;;4937890;28;20236;-72
2024/01/17 11:28:20;;;;;;;2.93;2.30;;;11.50;69.30;;;;;;4935823;28;20603;-72
2024/01/17 11:31:14;;;;;;;3.07;2.37;;;11.50;69.20;;;;;;4934323;28;20183;-72
2024/01/17 11:33:40;;;;;;;3.77;2.40;;;11.60;69.30;;;;;;4934136;28;20183;-72
2024/01/17 11:36:06;;;;;;;3.13;2.20;;;11.50;69.20;;;;;;4934735;28;20593;-72
2024/01/17 11:38:33;;;;;;;2.90;2.60;;;11.60;69.30;;;;;;4935800;28;20196;-72
2024/01/17 11:41:07;;;;;;;2.77;2.37;;;11.50;69.20;;;;;;4935039;28;20206;-72
2024/01/17 11:43:38;;;;;;;2.60;2.40;;;11.60;69.30;;;;;;4937151;28;20215;-72
2024/01/17 11:46:08;;;;;;;3.20;2.30;;;11.60;69.90;;;;;;4937063;28;20425;-72
2024/01/17 11:48:36;;;;;;;2.50;2.30;;;11.60;69.20;;;;;;4935686;29;20186;-73
2024/01/17 11:51:11;;;;;;;2.43;2.03;;;11.60;69.20;;;;;;4935869;28;20189;-72
2024/01/17 11:53:40;;;;;;;3.03;2.67;;;11.60;69.20;;;;;;4936750;28;20188;-73
2024/01/17 11:56:08;;;;;;;3.20;2.40;;;11.60;69.20;;;;;;4941769;29;20191;-73
2024/01/17 11:58:49;;;;;;;3.07;2.20;;;11.60;69.20;;;;;;4941240;28;20190;-73
2024/01/17 12:01:22;;;;;;;3.13;2.43;;;11.60;69.30;;;;;;4940568;28;20579;-72
2024/01/17 12:03:51;;;;;;;2.67;2.27;;;11.60;69.30;;;;;;4946801;28;20249;-73
2024/01/17 12:06:23;;;;;;;2.70;2.27;;;11.60;69.30;;;;;;4960094;28;20566;-72
2024/01/17 12:08:52;;;;;;;2.70;2.40;;;11.60;69.30;;;;;;4958399;28;20540;-72
2024/01/17 12:11:18;;;;;;;3.57;2.50;;;11.60;69.30;;;;;;4951957;28;20584;-72
2024/01/17 12:13:47;;;;;;;2.63;2.13;;;11.60;69.30;;;;;;4952487;28;20347;-73
2024/01/17 12:16:15;;;;;;;2.97;2.13;;;11.60;69.20;;;;;;4953755;28;20443;-73
2024/01/17 12:18:41;;;;;;;2.40;2.10;;;11.60;69.20;;;;;;4953720;28;20192;-72
2024/01/17 12:21:07;;;;;;;2.50;2.30;;;11.60;69.20;;;;;;4953110;28;20566;-72
2024/01/17 12:23:35;;;;;;;2.80;2.33;;;11.60;69.10;;;;;;4952292;28;20214;-72
2024/01/17 12:26:06;;;;;;;2.93;2.40;;;11.60;69.20;;;;;;4954980;28;20186;-72
2024/01/17 12:28:32;;;;;;;2.83;2.40;;;11.60;69.20;;;;;;4952609;28;20215;-72
2024/01/17 12:31:06;;;;;;;3.03;2.37;;;11.60;69.20;;;;;;4952919;28;20455;-72
2024/01/17 12:33:38;;;;;;;2.97;2.30;;;11.60;69.30;;;;;;4950938;28;20182;-73
2024/01/17 12:36:06;;;;;;;2.60;2.30;;;11.60;69.30;;;;;;4952196;28;20183;-72
2024/01/17 12:38:37;;;;;;;2.43;2.23;;;11.60;69.30;;;;;;4952960;28;20288;-73
2024/01/17 12:41:04;;;;;;;2.97;2.47;;;11.60;69.30;;;;;;4951963;28;20301;-73
2024/01/17 12:43:32;;;;;;;3.20;2.60;;;11.60;69.40;;;;;;4959793;28;20253;-73
2024/01/17 12:46:00;;;;;;;2.70;2.40;;;11.60;69.30;;;;;;4939777;29;20190;-73
2024/01/17 12:48:27;;;;;;;3.17;2.57;;;11.60;69.40;;;;;;4939986;28;20220;-73
2024/01/17 12:50:57;;;;;;;3.47;2.50;;;11.60;69.30;;;;;;4939656;29;20786;-72
2024/01/17 12:53:24;;;;;;;2.57;2.23;;;11.60;69.30;;;;;;4932587;28;20222;-73
2024/01/17 12:55:51;;;;;;;3.03;2.27;;;11.60;69.40;;;;;;4932399;28;20181;-73
2024/01/17 12:58:17;;;;;;;2.83;2.50;;;11.60;69.40;;;;;;4933335;28;20195;-72
2024/01/17 13:00:43;;;;;;;2.60;2.37;;;11.60;69.40;;;;;;4931097;28;20440;-72
2024/01/17 13:03:11;;;;;;;2.90;2.60;;;11.60;69.30;;;;;;4930841;28;20625;-72
2024/01/17 13:05:40;;;;;;;2.83;2.50;;;11.60;69.40;;;;;;4932542;28;20182;-72
2024/01/17 13:08:11;;;;;;;2.50;2.10;;;11.60;69.50;;;;;;4931375;28;20226;-72
2024/01/17 13:10:38;;;;;;;2.57;2.30;;;11.60;70.10;;;;;;4931732;28;20756;-72
2024/01/17 13:13:05;;;;;;;2.73;2.03;;;11.60;69.60;;;;;;4931495;28;20184;-72
2024/01/17 13:15:32;;;;;;;2.33;2.13;;;11.60;69.50;;;;;;4932255;28;20640;-72
2024/01/17 13:17:58;;;;;;;2.20;2.00;;;11.60;69.60;;;;;;4931810;28;20263;-72
2024/01/17 13:20:27;;;;;;;2.40;2.20;;;11.60;69.60;;;;;;4930982;29;20203;-72
2024/01/17 13:22:54;;;;;;;3.93;2.63;;;11.60;69.60;;;;;;4931664;28;20232;-72
2024/01/17 13:25:24;;;;;;;3.57;2.30;;;11.60;69.60;;;;;;4931204;28;20205;-72
2024/01/17 13:27:58;;;;;;;3.10;2.30;;;11.60;69.80;;;;;;4936403;29;20186;-72
2024/01/17 13:30:34;;;;;;;2.83;2.30;;;11.60;69.90;;;;;;4939854;28;20191;-72
2024/01/17 13:33:01;;;;;;;2.20;2.00;;;11.60;69.90;;;;;;4936829;28;20216;-72
2024/01/17 13:35:27;;;;;;;2.60;2.20;;;11.60;70.00;;;;;;4934356;28;20198;-72
2024/01/17 13:37:53;;;;;;;3.80;2.23;;;11.60;70.10;;;;;;4937306;29;20187;-72
2024/01/17 13:40:20;;;;;;;2.57;2.30;;;11.60;70.20;;;;;;4939674;29;20285;-72
2024/01/17 13:42:46;;;;;;;2.40;2.20;;;11.60;70.20;;;;;;4937713;29;20212;-72
2024/01/17 13:45:12;;;;;;;2.60;2.40;;;11.60;70.30;;;;;;4932345;29;20371;-72
2024/01/17 13:47:42;;;;;;;2.40;2.20;;;11.60;70.30;;;;;;4933034;28;20183;-72
2024/01/17 13:50:27;;;;;;;3.47;2.50;;;11.60;70.30;;;;;;4932632;28;20479;-72
2024/01/17 13:53:17;;;;;;;2.53;1.97;;;11.60;70.30;;;;;;4934339;28;20698;-72
2024/01/17 13:55:46;;;;;;;3.40;2.10;;;11.60;70.40;;;;;;4933334;28;20197;-72
2024/01/17 13:58:12;;;;;;;3.53;2.20;;;11.60;70.40;;;;;;4949239;28;20176;-72
2024/01/17 14:00:38;;;;;;;3.17;2.17;;;11.60;70.40;;;;;;4947266;28;20303;-72
2024/01/17 14:03:04;;;;;;;2.40;2.20;;;11.60;70.50;;;;;;4929514;28;20285;-72
2024/01/17 14:05:30;;;;;;;2.33;2.03;;;11.60;70.50;;;;;;4928576;29;20185;-72
2024/01/17 14:07:58;;;;;;;2.50;2.30;;;11.60;70.50;;;;;;4928961;28;20348;-72
2024/01/17 14:10:24;;;;;;;4.57;2.40;;;11.60;70.50;;;;;;4929942;29;20551;-72
2024/01/17 14:12:49;;;;;;;2.77;2.20;;;11.60;70.60;;;;;;4928872;29;20197;-72